< < Back
Terminal Aerodrome Forecast


Current Version              Previous Versions:   1  2  3  4  5  6  7  8  9  

Terminal Aerodrome Forecast

144
FTUS42 KFFC 201144
TAFPDK
TAF
KPDK 201144Z 2012/2112 05003KT P6SM VCSH FEW040 OVC050
      TEMPO 2012/2014 5SM -SHRA BR BKN035
     FM201400 05005KT P6SM VCSH OVC035
     FM201900 08005KT P6SM BKN040
     FM202200 35004KT P6SM SCT050
     FM210700 05004KT 5SM BR OVC025
     FM211100 06005KT 4SM BR OVC004=

Latest METAR

598
SAUS70 KWBC 201800 RRS
MTRPDK
METAR KPDK 201753Z 02003KT 6SM HZ OVC013 10/07 A3017 RMK AO2 SLP224
60000 T01000067 10100 20056 58013 $


USA.gov is the U.S. government's official web portal to all federal, state and local government web resources and services.